Time;durP1;ratioP1;P1;durP2;ratioP2;P2;SDS_P1;SDS_P2;PMS_P1;PMS_P2;Temp;Humidity;BMP_temperature;BMP_pressure;BME280_temperature;BME280_humidity;BME280_pressure;Samples;Min_cycle;Max_cycle;Signal;HPM_P1;HPM_P2
2021/12/08 00:02:11;;;;;;;8.88;2.50;;;3.30;99.90;;;;;;5017389;28;20040;-76
2021/12/08 00:04:36;;;;;;;8.23;2.40;;;3.30;99.90;;;;;;5001513;28;20435;-76
2021/12/08 00:07:03;;;;;;;9.40;2.83;;;3.30;99.90;;;;;;5033875;28;20037;-76
2021/12/08 00:09:46;;;;;;;11.80;3.75;;;3.30;99.90;;;;;;5032784;28;20037;-76
2021/12/08 00:14:58;;;;;;;3.33;2.25;;;3.30;99.90;;;;;;5033664;28;20127;-76
2021/12/08 00:17:24;;;;;;;6.80;2.58;;;3.20;99.90;;;;;;5050631;28;20123;-76
2021/12/08 00:19:50;;;;;;;7.43;2.67;;;3.20;99.90;;;;;;5051206;28;20033;-76
2021/12/08 00:22:15;;;;;;;7.32;2.92;;;3.20;99.90;;;;;;5033543;28;20510;-76
2021/12/08 00:24:41;;;;;;;6.65;2.75;;;3.20;99.90;;;;;;5033589;28;20652;-76
2021/12/08 00:27:07;;;;;;;11.13;2.40;;;3.30;99.90;;;;;;5033023;28;20098;-76
2021/12/08 00:29:33;;;;;;;7.78;3.05;;;3.20;99.90;;;;;;5033259;28;20518;-76
2021/12/08 00:31:59;;;;;;;6.82;3.03;;;3.20;99.90;;;;;;5051086;28;20037;-77
2021/12/08 00:34:26;;;;;;;8.38;2.80;;;3.30;99.90;;;;;;5053811;28;20072;-77
2021/12/08 00:36:56;;;;;;;8.05;3.67;;;3.20;99.90;;;;;;5020817;28;20495;-77
2021/12/08 00:39:22;;;;;;;8.20;3.40;;;3.30;99.90;;;;;;5021019;28;20368;-77
2021/12/08 00:41:48;;;;;;;6.70;2.47;;;3.30;99.90;;;;;;5037522;28;20068;-77
2021/12/08 00:44:14;;;;;;;8.95;2.47;;;3.30;99.90;;;;;;5019914;28;20091;-77
2021/12/08 00:46:39;;;;;;;4.03;2.47;;;3.40;99.90;;;;;;5037440;28;20045;-77
2021/12/08 00:49:07;;;;;;;5.07;2.58;;;3.40;99.90;;;;;;5020362;28;20036;-77
2021/12/08 00:51:33;;;;;;;5.18;2.15;;;3.40;99.90;;;;;;5036818;28;20076;-77
2021/12/08 00:53:58;;;;;;;5.65;3.08;;;3.40;99.90;;;;;;5054011;28;20462;-77
2021/12/08 00:56:24;;;;;;;5.25;1.95;;;3.50;99.90;;;;;;5021002;28;20397;-77
2021/12/08 00:58:50;;;;;;;7.97;2.40;;;3.50;99.90;;;;;;5036779;28;20041;-77
2021/12/08 01:01:16;;;;;;;6.40;1.58;;;3.50;99.90;;;;;;5036840;28;20037;-77
2021/12/08 01:03:42;;;;;;;7.35;2.50;;;3.50;99.90;;;;;;5036222;28;20041;-77
2021/12/08 01:06:08;;;;;;;7.60;2.63;;;3.60;99.90;;;;;;5036092;28;20037;-77
2021/12/08 01:08:34;;;;;;;8.98;2.38;;;3.60;99.90;;;;;;5035246;28;20175;-77
2021/12/08 01:11:06;;;;;;;9.30;2.45;;;3.60;99.90;;;;;;5019521;28;20400;-77
2021/12/08 01:13:31;;;;;;;6.50;2.83;;;3.60;99.90;;;;;;5019278;28;20499;-77
2021/12/08 01:15:58;;;;;;;11.35;2.53;;;3.70;99.90;;;;;;5020005;28;20044;-77
2021/12/08 01:18:28;;;;;;;6.07;2.15;;;3.70;99.90;;;;;;5054480;28;20029;-77
2021/12/08 01:20:56;;;;;;;6.93;2.67;;;3.80;99.90;;;;;;5019937;28;20033;-77
2021/12/08 01:23:22;;;;;;;5.35;2.42;;;3.80;99.90;;;;;;5036506;28;20045;-77
2021/12/08 01:25:48;;;;;;;4.53;2.35;;;3.80;99.90;;;;;;5054366;28;20037;-77
2021/12/08 01:28:18;;;;;;;7.43;3.05;;;3.80;99.90;;;;;;5019294;28;20483;-77
2021/12/08 01:30:44;;;;;;;2.78;1.98;;;3.80;99.90;;;;;;5019690;28;20044;-77
2021/12/08 01:33:10;;;;;;;6.45;2.33;;;3.70;99.90;;;;;;5054228;28;20045;-77
2021/12/08 01:35:35;;;;;;;8.48;2.78;;;3.80;99.90;;;;;;5053938;28;20100;-77
2021/12/08 01:38:02;;;;;;;12.15;2.47;;;3.80;99.90;;;;;;5035437;28;20476;-77
2021/12/08 01:40:28;;;;;;;7.68;2.83;;;3.80;99.90;;;;;;5035957;28;20037;-77
2021/12/08 01:42:57;;;;;;;6.93;2.53;;;3.70;99.90;;;;;;5019714;28;20095;-77
2021/12/08 01:48:12;;;;;;;4.45;2.10;;;3.70;99.90;;;;;;5036009;28;20052;-77
2021/12/08 01:50:38;;;;;;;8.32;2.58;;;3.70;99.90;;;;;;5053544;28;20102;-77
2021/12/08 01:53:06;;;;;;;7.70;2.65;;;3.70;99.90;;;;;;5019536;28;20040;-77
2021/12/08 01:55:31;;;;;;;6.05;2.50;;;3.70;99.90;;;;;;5019236;28;20052;-77
2021/12/08 01:57:57;;;;;;;3.60;2.45;;;3.70;99.90;;;;;;5019475;28;20037;-77
2021/12/08 02:00:34;;;;;;;10.93;3.08;;;3.70;99.90;;;;;;5035352;28;20045;-77
2021/12/08 02:03:00;;;;;;;9.23;3.08;;;3.70;99.90;;;;;;5018941;28;20045;-77
2021/12/08 02:05:27;;;;;;;5.53;2.63;;;3.70;99.90;;;;;;5036316;28;20040;-77
2021/12/08 02:07:53;;;;;;;7.30;2.72;;;3.70;99.90;;;;;;5022885;28;20051;-77
2021/12/08 02:10:19;;;;;;;6.85;2.92;;;3.70;99.90;;;;;;5020056;28;20049;-77
2021/12/08 02:12:46;;;;;;;6.50;2.60;;;3.80;99.90;;;;;;5034721;28;20051;-77
2021/12/08 02:15:14;;;;;;;7.45;2.85;;;3.80;99.90;;;;;;5053369;28;20037;-77
2021/12/08 02:17:40;;;;;;;7.43;2.90;;;3.80;99.90;;;;;;5019067;28;20120;-77
2021/12/08 02:20:11;;;;;;;5.40;2.78;;;3.80;99.90;;;;;;5018575;28;20043;-77
2021/12/08 02:22:36;;;;;;;7.10;2.92;;;3.80;99.90;;;;;;5018443;28;20565;-77
2021/12/08 02:25:04;;;;;;;6.72;2.70;;;3.70;99.90;;;;;;5018790;28;20073;-77
2021/12/08 02:27:33;;;;;;;10.40;2.70;;;3.80;99.90;;;;;;5018966;28;20387;-78
2021/12/08 02:30:07;;;;;;;5.97;2.65;;;3.70;99.90;;;;;;5018355;28;20159;-77
2021/12/08 02:46:42;;;;;;;7.55;2.88;;;3.70;99.90;;;;;;5052597;28;20037;-77
2021/12/08 02:49:01;;;;;;;7.43;3.08;;;3.80;99.90;;;;;;5051710;28;20064;-77
2021/12/08 02:51:26;;;;;;;7.00;2.95;;;3.80;99.90;;;;;;5052567;28;20029;-77
2021/12/08 02:53:52;;;;;;;9.43;3.38;;;3.90;99.90;;;;;;5018340;28;20036;-77
2021/12/08 02:56:18;;;;;;;6.10;2.83;;;3.90;99.90;;;;;;5034031;28;20041;-77
2021/12/08 02:58:44;;;;;;;5.88;3.15;;;4.00;99.90;;;;;;5017446;28;20128;-77
2021/12/08 03:01:11;;;;;;;8.48;3.67;;;4.00;99.90;;;;;;5055158;28;20135;-77
2021/12/08 03:03:37;;;;;;;5.68;3.28;;;4.10;99.90;;;;;;5042275;28;20069;-77
2021/12/08 03:06:04;;;;;;;7.47;2.95;;;4.10;99.90;;;;;;5070156;28;20391;-77
2021/12/08 03:08:30;;;;;;;5.72;3.03;;;4.10;99.90;;;;;;5034296;28;20037;-77
2021/12/08 03:10:56;;;;;;;6.72;3.70;;;4.10;99.90;;;;;;5034263;28;20084;-77
2021/12/08 03:13:35;;;;;;;8.75;3.55;;;4.20;99.90;;;;;;5052580;28;20051;-77
2021/12/08 03:16:00;;;;;;;4.25;3.38;;;4.20;99.90;;;;;;5016933;28;20048;-77
2021/12/08 03:18:33;;;;;;;8.65;3.63;;;4.20;99.90;;;;;;5034395;28;20033;-77
2021/12/08 03:21:01;;;;;;;9.40;3.72;;;4.30;99.90;;;;;;5034483;28;20055;-77
2021/12/08 03:23:33;;;;;;;6.53;3.85;;;4.30;99.90;;;;;;5017801;28;20043;-77
2021/12/08 03:26:02;;;;;;;7.35;4.38;;;4.30;99.90;;;;;;5033478;28;20549;-77
2021/12/08 03:28:32;;;;;;;7.20;4.03;;;4.40;99.90;;;;;;5017760;28;20079;-77
2021/12/08 03:31:06;;;;;;;10.52;5.43;;;4.40;99.90;;;;;;5017528;28;20578;-77
2021/12/08 03:33:32;;;;;;;9.80;4.18;;;4.40;99.90;;;;;;5033455;28;20044;-77
2021/12/08 03:35:58;;;;;;;7.40;4.43;;;4.40;99.90;;;;;;5017274;28;20097;-77
2021/12/08 03:38:25;;;;;;;7.78;3.97;;;4.40;99.90;;;;;;5034447;28;20037;-78
2021/12/08 03:40:52;;;;;;;11.25;5.32;;;4.50;99.90;;;;;;5051658;28;20040;-77
2021/12/08 03:43:18;;;;;;;8.02;4.88;;;4.50;99.90;;;;;;5050937;28;20100;-77
2021/12/08 03:45:48;;;;;;;8.15;4.35;;;4.50;99.90;;;;;;5051741;28;20044;-77
2021/12/08 03:48:29;;;;;;;6.28;3.97;;;4.50;99.90;;;;;;5034073;28;20041;-77
2021/12/08 03:50:55;;;;;;;9.73;4.43;;;4.50;99.90;;;;;;5051551;28;20399;-77
2021/12/08 03:53:21;;;;;;;4.32;3.60;;;4.50;99.90;;;;;;5051323;28;20037;-77
2021/12/08 03:55:49;;;;;;;9.80;4.40;;;4.50;99.90;;;;;;5051693;28;20080;-77
2021/12/08 03:58:16;;;;;;;13.40;4.35;;;4.50;99.90;;;;;;5017557;28;20071;-77
2021/12/08 04:00:45;;;;;;;7.65;3.97;;;4.50;99.90;;;;;;5016409;28;20496;-77
2021/12/08 04:03:12;;;;;;;8.88;4.45;;;4.50;99.90;;;;;;5034033;28;20048;-77
2021/12/08 04:05:53;;;;;;;6.80;3.97;;;4.50;99.90;;;;;;5017603;28;20539;-77
2021/12/08 04:08:29;;;;;;;6.68;4.30;;;4.50;99.90;;;;;;5036965;28;20089;-77
2021/12/08 04:10:55;;;;;;;8.82;3.83;;;4.60;99.90;;;;;;5037156;28;20080;-77
2021/12/08 04:13:27;;;;;;;9.32;4.65;;;4.60;99.90;;;;;;5037916;28;20045;-77
2021/12/08 04:15:54;;;;;;;7.10;4.22;;;4.60;99.90;;;;;;5021485;28;20045;-77
2021/12/08 04:18:22;;;;;;;10.18;4.32;;;4.60;99.90;;;;;;5021241;28;20338;-77
2021/12/08 04:20:52;;;;;;;9.57;4.25;;;4.60;99.90;;;;;;5020795;28;20079;-77
2021/12/08 04:23:21;;;;;;;9.68;4.50;;;4.70;99.90;;;;;;5021509;28;20043;-77
2021/12/08 04:25:51;;;;;;;6.88;3.90;;;4.70;99.90;;;;;;5054844;28;20037;-77
2021/12/08 04:28:21;;;;;;;15.68;5.55;;;4.70;99.90;;;;;;5037159;28;20053;-78
2021/12/08 04:30:59;;;;;;;8.15;4.55;;;4.80;99.90;;;;;;5021298;28;20051;-78
2021/12/08 04:33:25;;;;;;;7.50;4.60;;;4.80;99.90;;;;;;5021534;28;20076;-77
2021/12/08 04:35:53;;;;;;;11.70;4.72;;;4.80;99.90;;;;;;5037697;28;20499;-78
2021/12/08 04:38:28;;;;;;;5.85;4.30;;;4.80;99.90;;;;;;5054986;28;20041;-78
2021/12/08 04:41:03;;;;;;;7.57;5.05;;;4.90;99.90;;;;;;5021085;28;20033;-78
2021/12/08 04:43:39;;;;;;;9.15;4.68;;;4.90;99.90;;;;;;5037875;28;20044;-78
2021/12/08 04:46:15;;;;;;;12.52;4.40;;;5.00;99.90;;;;;;5020164;28;20503;-78
2021/12/08 05:00:17;;;;;;;10.15;4.32;;;5.00;99.90;;;;;;5037365;28;20190;-78
2021/12/08 05:03:04;;;;;;;8.05;4.38;;;5.10;99.90;;;;;;5055281;28;20077;-77
2021/12/08 05:08:15;;;;;;;6.45;3.33;;;5.10;99.90;;;;;;5055959;28;20047;-78
2021/12/08 05:10:41;;;;;;;5.00;3.70;;;5.10;99.90;;;;;;5019452;28;20037;-77
2021/12/08 05:13:10;;;;;;;6.88;3.65;;;5.10;99.90;;;;;;5035802;28;20052;-78
2021/12/08 05:15:41;;;;;;;9.48;3.47;;;5.10;99.90;;;;;;5036985;28;20037;-78
2021/12/08 05:18:26;;;;;;;8.30;3.40;;;5.10;99.90;;;;;;5021204;28;20056;-78
2021/12/08 05:21:16;;;;;;;7.15;3.78;;;5.00;99.90;;;;;;5055110;28;20240;-78
2021/12/08 05:23:44;;;;;;;5.28;3.58;;;5.00;99.90;;;;;;5020858;28;20108;-77
2021/12/08 05:26:16;;;;;;;8.23;4.22;;;5.00;99.90;;;;;;5020166;28;20049;-77
2021/12/08 05:28:46;;;;;;;7.00;3.45;;;5.00;99.90;;;;;;5018429;28;20332;-77
2021/12/08 05:31:17;;;;;;;9.82;4.30;;;5.00;99.90;;;;;;5017887;28;20041;-77
2021/12/08 05:33:44;;;;;;;9.80;3.80;;;4.90;99.90;;;;;;5034540;28;20083;-77
2021/12/08 05:36:11;;;;;;;8.23;3.65;;;5.00;99.90;;;;;;5017995;28;20041;-77
2021/12/08 05:38:37;;;;;;;5.13;3.30;;;5.00;99.90;;;;;;5052842;28;20377;-77
2021/12/08 05:41:13;;;;;;;6.68;3.60;;;5.00;99.90;;;;;;5053227;28;20072;-77
2021/12/08 05:43:39;;;;;;;6.18;3.53;;;5.00;99.90;;;;;;5053734;28;20037;-77
2021/12/08 05:46:06;;;;;;;5.93;3.67;;;5.00;99.90;;;;;;5035179;28;20120;-77
2021/12/08 05:48:33;;;;;;;6.32;3.95;;;4.90;99.90;;;;;;5054235;28;20045;-77
2021/12/08 05:51:07;;;;;;;9.52;3.95;;;4.90;99.90;;;;;;5053761;28;20515;-77
2021/12/08 05:53:35;;;;;;;8.50;3.70;;;4.90;99.90;;;;;;5053770;28;20492;-77
2021/12/08 05:56:01;;;;;;;4.05;2.90;;;4.90;99.90;;;;;;5053629;28;20053;-77
2021/12/08 05:58:27;;;;;;;6.22;3.33;;;4.80;99.90;;;;;;5053683;28;20045;-77
2021/12/08 06:01:06;;;;;;;4.93;2.95;;;4.80;99.90;;;;;;5053470;28;20476;-77
2021/12/08 06:03:32;;;;;;;5.40;3.08;;;4.80;99.90;;;;;;5035099;28;20045;-77
2021/12/08 06:05:58;;;;;;;8.25;3.42;;;4.80;99.90;;;;;;5053181;28;20535;-77
2021/12/08 06:08:27;;;;;;;10.00;3.47;;;4.80;99.90;;;;;;5036133;28;20056;-77
2021/12/08 06:10:53;;;;;;;7.72;4.55;;;4.80;99.90;;;;;;5053328;28;20041;-77
2021/12/08 06:13:19;;;;;;;5.88;3.08;;;4.80;99.90;;;;;;5053313;28;20041;-76
2021/12/08 06:15:47;;;;;;;5.65;2.90;;;4.80;99.90;;;;;;5035784;28;20064;-77
2021/12/08 06:18:13;;;;;;;5.75;2.92;;;4.70;99.90;;;;;;5035350;28;20079;-77
2021/12/08 06:20:39;;;;;;;9.32;2.53;;;4.70;99.90;;;;;;5053083;28;20037;-77
2021/12/08 06:23:07;;;;;;;5.60;2.75;;;4.70;99.90;;;;;;5034718;28;20047;-77
2021/12/08 06:25:34;;;;;;;4.53;2.47;;;4.70;99.90;;;;;;5053472;28;20044;-77
2021/12/08 06:28:00;;;;;;;6.55;3.05;;;4.70;99.90;;;;;;5038049;28;20040;-81
2021/12/08 06:30:31;;;;;;;6.70;2.58;;;4.70;99.90;;;;;;5062678;28;20048;-81
2021/12/08 06:32:58;;;;;;;5.50;3.13;;;4.70;99.90;;;;;;5043900;28;20071;-80
2021/12/08 06:35:31;;;;;;;5.57;3.00;;;4.60;99.90;;;;;;5031909;28;20037;-81
2021/12/08 06:37:57;;;;;;;9.02;2.80;;;4.60;99.90;;;;;;5039877;28;20080;-82
2021/12/08 06:40:36;;;;;;;5.55;2.53;;;4.60;99.90;;;;;;5057074;28;20041;-82
2021/12/08 06:43:05;;;;;;;6.07;2.78;;;4.70;99.90;;;;;;5056914;28;20033;-81
2021/12/08 06:45:39;;;;;;;6.75;2.60;;;4.70;99.90;;;;;;5036911;28;20040;-78
2021/12/08 06:48:10;;;;;;;5.03;2.10;;;4.70;99.90;;;;;;5052635;28;20458;-78
2021/12/08 06:50:41;;;;;;;8.93;2.00;;;4.60;99.90;;;;;;5033438;28;20045;-78
2021/12/08 06:53:07;;;;;;;6.88;2.50;;;4.60;99.90;;;;;;5018413;28;20495;-78
2021/12/08 06:55:43;;;;;;;5.75;2.55;;;4.60;99.90;;;;;;5052594;28;20514;-78
2021/12/08 06:58:22;;;;;;;7.82;3.17;;;4.60;99.90;;;;;;5034718;28;20036;-78
2021/12/08 07:06:06;;;;;;;4.18;2.75;;;4.70;99.90;;;;;;5052637;28;20063;-78
2021/12/08 07:08:36;;;;;;;6.50;2.15;;;4.70;99.90;;;;;;5034668;28;20403;-78
2021/12/08 07:11:03;;;;;;;4.30;1.70;;;4.60;99.90;;;;;;5052335;28;20036;-78
2021/12/08 07:13:31;;;;;;;5.40;2.17;;;4.60;99.90;;;;;;5052408;28;20457;-77
2021/12/08 07:16:08;;;;;;;3.17;2.05;;;4.60;99.90;;;;;;5052375;28;20051;-79
2021/12/08 07:18:42;;;;;;;3.05;1.80;;;4.50;99.90;;;;;;5034469;28;20510;-78
2021/12/08 07:21:12;;;;;;;3.28;1.77;;;4.50;99.90;;;;;;5034596;28;20036;-78
2021/12/08 07:23:46;;;;;;;3.70;1.63;;;4.50;99.90;;;;;;5018079;28;20041;-78
2021/12/08 07:26:16;;;;;;;5.32;1.90;;;4.50;99.90;;;;;;5052389;28;20415;-78
2021/12/08 07:28:43;;;;;;;4.55;2.42;;;4.50;99.90;;;;;;5034136;28;20044;-79
2021/12/08 07:31:20;;;;;;;3.97;2.10;;;4.60;99.90;;;;;;5034246;28;20098;-78
2021/12/08 07:33:46;;;;;;;8.88;2.10;;;4.60;99.90;;;;;;5017959;28;20567;-78
2021/12/08 07:36:15;;;;;;;4.95;1.90;;;4.60;99.90;;;;;;5034130;28;20136;-79
2021/12/08 07:38:43;;;;;;;6.90;1.98;;;4.70;99.90;;;;;;5052073;28;20041;-78
2021/12/08 07:41:15;;;;;;;6.07;1.90;;;4.70;99.90;;;;;;5017727;28;20041;-79
2021/12/08 07:43:44;;;;;;;;;;;4.70;99.90;;;;;;5017908;28;20049;-78
2021/12/08 07:46:20;;;;;;;8.02;3.10;;;4.70;99.90;;;;;;5017763;28;20371;-78
2021/12/08 07:49:07;;;;;;;3.25;2.08;;;4.70;99.90;;;;;;5034372;28;20483;-79
2021/12/08 07:51:39;;;;;;;6.28;2.05;;;4.70;99.90;;;;;;5034125;28;20468;-78
2021/12/08 07:54:06;;;;;;;4.63;1.83;;;4.70;99.90;;;;;;5052516;28;20072;-78
2021/12/08 07:56:33;;;;;;;10.50;2.15;;;4.70;99.90;;;;;;5034049;28;20060;-79
2021/12/08 07:59:02;;;;;;;4.25;2.05;;;4.70;99.90;;;;;;5033749;28;20080;-78
2021/12/08 08:01:38;;;;;;;8.10;2.13;;;4.70;99.90;;;;;;5033921;28;20487;-79
2021/12/08 08:04:09;;;;;;;6.32;1.80;;;4.70;99.90;;;;;;5017613;28;20044;-79
2021/12/08 08:06:39;;;;;;;8.20;1.58;;;4.70;99.90;;;;;;5051862;28;20041;-79
2021/12/08 08:09:08;;;;;;;7.35;1.75;;;4.70;99.90;;;;;;5017275;28;20076;-78
2021/12/08 08:11:40;;;;;;;11.30;2.00;;;4.70;99.90;;;;;;5017520;28;20043;-79
2021/12/08 08:14:09;;;;;;;6.28;1.65;;;4.70;99.90;;;;;;5043756;28;20051;-79
2021/12/08 08:16:36;;;;;;;3.20;1.75;;;4.70;99.90;;;;;;5058170;28;20070;-78
2021/12/08 08:19:10;;;;;;;5.80;1.33;;;4.80;99.90;;;;;;5058041;28;20075;-79
2021/12/08 08:21:46;;;;;;;8.40;2.00;;;4.80;99.90;;;;;;5058481;28;20041;-79
2021/12/08 08:24:13;;;;;;;6.80;1.50;;;4.80;99.90;;;;;;5058034;28;20070;-81
2021/12/08 08:26:41;;;;;;;4.75;1.55;;;4.80;99.90;;;;;;5023888;28;20045;-81
2021/12/08 08:29:08;;;;;;;3.38;1.10;;;4.80;99.90;;;;;;5057113;28;20041;-81
2021/12/08 08:31:45;;;;;;;9.95;1.75;;;4.80;99.90;;;;;;5038329;28;20037;-81
2021/12/08 08:34:11;;;;;;;6.40;1.33;;;4.80;99.90;;;;;;5037666;28;20096;-81
2021/12/08 08:36:43;;;;;;;5.78;1.17;;;4.80;99.90;;;;;;5022305;28;20037;-81
2021/12/08 08:39:20;;;;;;;7.95;2.10;;;4.80;99.90;;;;;;5020004;28;20037;-81
2021/12/08 08:42:06;;;;;;;5.18;1.13;;;4.90;99.90;;;;;;5054435;28;20091;-81
2021/12/08 08:44:43;;;;;;;13.10;1.67;;;4.90;99.90;;;;;;5020653;28;20053;-80
2021/12/08 08:47:15;;;;;;;7.07;2.08;;;5.10;99.90;;;;;;5022901;28;20060;-80
2021/12/08 08:49:42;;;;;;;3.03;1.13;;;5.10;99.90;;;;;;5035891;28;20045;-79
2021/12/08 08:52:17;;;;;;;4.32;1.60;;;5.20;99.90;;;;;;5052532;28;20040;-79
2021/12/08 08:54:45;;;;;;;3.75;1.30;;;5.30;99.90;;;;;;5053923;28;20055;-78
2021/12/08 08:57:19;;;;;;;4.05;1.52;;;5.30;99.90;;;;;;5022127;28;20128;-79
2021/12/08 08:59:48;;;;;;;6.95;1.48;;;5.30;99.90;;;;;;5037573;28;20052;-78
2021/12/08 09:02:22;;;;;;;8.18;1.90;;;5.30;99.90;;;;;;5054880;28;20036;-78
2021/12/08 09:04:54;;;;;;;5.43;1.30;;;5.30;99.90;;;;;;5021775;28;20511;-79
2021/12/08 09:07:34;;;;;;;9.02;1.63;;;5.40;99.90;;;;;;5055191;28;20045;-79
2021/12/08 09:10:04;;;;;;;6.22;2.30;;;5.40;99.90;;;;;;5055320;28;20048;-79
2021/12/08 09:12:35;;;;;;;6.95;1.85;;;5.40;99.90;;;;;;5037486;28;20048;-79
2021/12/08 09:15:19;;;;;;;5.28;1.50;;;5.40;99.90;;;;;;5046239;28;20048;-79
2021/12/08 09:17:55;;;;;;;6.00;1.40;;;5.40;99.90;;;;;;5033197;28;20032;-80
2021/12/08 09:20:38;;;;;;;7.90;1.58;;;5.40;99.90;;;;;;5066908;28;20041;-79
2021/12/08 09:23:14;;;;;;;9.85;1.90;;;5.40;99.90;;;;;;5032097;28;20036;-79
2021/12/08 09:25:54;;;;;;;3.15;1.48;;;5.40;99.90;;;;;;5047872;28;20104;-79
2021/12/08 09:28:30;;;;;;;6.30;1.48;;;5.50;99.90;;;;;;5063286;28;20514;-79
2021/12/08 09:31:19;;;;;;;10.02;1.60;;;5.50;99.90;;;;;;5065619;28;20041;-79
2021/12/08 09:33:54;;;;;;;15.90;1.73;;;5.50;99.90;;;;;;5031353;28;20029;-79
2021/12/08 09:36:29;;;;;;;10.75;2.05;;;5.40;99.90;;;;;;5045505;28;20045;-79
2021/12/08 09:39:02;;;;;;;8.32;2.20;;;5.50;99.90;;;;;;5063291;28;20079;-79
2021/12/08 09:41:57;;;;;;;8.50;2.10;;;5.60;99.90;;;;;;5064366;28;20055;-80
2021/12/08 09:44:28;;;;;;;7.75;2.10;;;5.70;99.90;;;;;;5066588;28;20464;-80
2021/12/08 09:46:54;;;;;;;6.70;1.73;;;5.70;99.90;;;;;;5067153;28;20041;-80
2021/12/08 09:49:23;;;;;;;5.75;1.50;;;5.80;99.90;;;;;;5064231;28;20579;-79
2021/12/08 09:51:54;;;;;;;6.45;1.60;;;5.80;99.90;;;;;;5063076;28;20037;-79
2021/12/08 09:54:21;;;;;;;6.97;1.70;;;5.90;99.90;;;;;;5030444;28;21901;-79
2021/12/08 09:56:49;;;;;;;5.20;1.70;;;5.90;99.90;;;;;;5063873;28;20582;-79
2021/12/08 09:59:15;;;;;;;7.85;1.83;;;6.00;99.90;;;;;;5064568;28;20033;-80
2021/12/08 10:01:43;;;;;;;3.45;1.38;;;6.00;99.90;;;;;;5045836;28;20107;-79
2021/12/08 10:04:11;;;;;;;6.55;1.48;;;6.00;99.90;;;;;;5064894;28;20049;-80
2021/12/08 10:06:39;;;;;;;5.05;1.38;;;6.00;99.90;;;;;;5029591;28;20041;-80
2021/12/08 10:09:05;;;;;;;9.52;1.83;;;5.90;99.90;;;;;;5047765;28;20048;-79
2021/12/08 10:11:32;;;;;;;9.65;2.20;;;5.90;99.90;;;;;;5024102;28;20041;-81
2021/12/08 10:14:00;;;;;;;11.10;3.08;;;5.90;99.90;;;;;;5038857;28;20045;-82
2021/12/08 10:16:27;;;;;;;10.32;2.10;;;5.90;99.90;;;;;;5041172;28;20049;-81
2021/12/08 10:18:55;;;;;;;6.10;1.83;;;5.80;99.90;;;;;;5023625;28;20491;-82
2021/12/08 10:21:30;;;;;;;5.00;1.73;;;5.90;99.90;;;;;;5058613;28;20055;-81
2021/12/08 10:23:55;;;;;;;6.32;1.70;;;6.00;99.90;;;;;;5039867;28;20039;-81
2021/12/08 10:26:24;;;;;;;6.45;2.03;;;6.00;99.90;;;;;;5024098;28;20049;-81
2021/12/08 10:29:00;;;;;;;5.35;2.00;;;6.00;99.90;;;;;;5039117;28;20115;-81
2021/12/08 10:31:40;;;;;;;5.75;1.85;;;6.00;99.90;;;;;;5040214;28;20041;-82
2021/12/08 10:37:14;;;;;;;5.07;1.73;;;6.00;99.90;;;;;;5058404;28;20045;-81
2021/12/08 10:39:46;;;;;;;5.20;1.80;;;6.00;99.90;;;;;;5022830;28;20087;-81
2021/12/08 10:42:18;;;;;;;6.55;1.67;;;6.00;99.90;;;;;;5040253;28;20037;-82
2021/12/08 10:45:08;;;;;;;9.57;2.20;;;6.00;99.90;;;;;;5040668;28;20625;-81
2021/12/08 10:47:41;;;;;;;7.20;1.70;;;6.10;99.90;;;;;;5058848;28;20048;-81
2021/12/08 10:56:19;;;;;;;8.70;1.45;;;6.10;99.90;;;;;;5039991;28;20049;-82
2021/12/08 10:58:50;;;;;;;7.97;1.80;;;6.10;99.90;;;;;;5041219;28;20373;-82
2021/12/08 11:01:19;;;;;;;5.38;1.58;;;6.10;99.90;;;;;;5039547;28;20510;-81
2021/12/08 11:03:46;;;;;;;6.88;2.08;;;6.10;99.90;;;;;;5040368;28;20044;-82
2021/12/08 11:06:15;;;;;;;5.45;1.98;;;6.20;99.90;;;;;;5040723;28;20052;-82
2021/12/08 11:08:46;;;;;;;3.50;1.90;;;6.20;99.90;;;;;;5041235;28;20044;-82
2021/12/08 11:11:22;;;;;;;11.03;2.53;;;6.30;99.90;;;;;;5059456;28;20036;-79
2021/12/08 11:13:52;;;;;;;3.05;1.58;;;6.30;99.90;;;;;;5042732;28;20040;-79
2021/12/08 11:16:19;;;;;;;8.63;2.25;;;6.30;99.90;;;;;;5042298;28;20381;-79
2021/12/08 11:18:49;;;;;;;8.65;3.22;;;6.40;99.90;;;;;;5042400;28;20099;-79
2021/12/08 11:21:21;;;;;;;9.32;2.15;;;6.40;99.90;;;;;;5043912;28;20051;-79
2021/12/08 11:23:50;;;;;;;5.32;1.67;;;6.40;99.90;;;;;;5042809;28;20037;-79
2021/12/08 11:26:38;;;;;;;6.22;2.03;;;6.40;99.90;;;;;;5039028;28;20514;-79
2021/12/08 11:29:15;;;;;;;3.70;1.80;;;6.40;99.90;;;;;;5021183;28;20033;-79
2021/12/08 11:31:53;;;;;;;6.28;2.95;;;6.40;99.90;;;;;;5038619;28;20037;-79
2021/12/08 11:34:34;;;;;;;5.47;2.08;;;6.40;99.90;;;;;;5021330;28;20040;-80
2021/12/08 11:37:14;;;;;;;9.13;3.33;;;6.40;99.90;;;;;;5021912;28;20048;-79
2021/12/08 11:39:43;;;;;;;3.80;1.83;;;6.30;99.90;;;;;;5021037;28;20040;-79
2021/12/08 11:42:16;;;;;;;8.77;2.60;;;6.30;99.90;;;;;;5021307;28;20045;-79
2021/12/08 11:44:45;;;;;;;4.13;1.50;;;6.30;99.90;;;;;;5038057;28;20094;-80
2021/12/08 11:47:22;;;;;;;4.40;2.15;;;6.20;99.90;;;;;;5022232;28;20124;-77
2021/12/08 11:50:00;;;;;;;13.13;2.28;;;6.20;99.90;;;;;;5033669;28;20135;-78
2021/12/08 11:52:32;;;;;;;7.60;2.45;;;6.20;99.90;;;;;;5034120;28;20052;-77
2021/12/08 11:55:03;;;;;;;9.63;2.70;;;6.20;99.90;;;;;;5033981;28;20090;-78
2021/12/08 11:57:40;;;;;;;11.57;3.13;;;6.20;99.90;;;;;;5034031;28;20045;-78
2021/12/08 12:00:15;;;;;;;5.93;2.22;;;6.10;99.90;;;;;;5051483;28;20090;-77
2021/12/08 12:03:07;;;;;;;9.43;2.15;;;6.10;99.90;;;;;;5017783;28;20087;-77
2021/12/08 12:05:41;;;;;;;4.85;2.00;;;6.10;99.90;;;;;;5035182;28;20187;-80
2021/12/08 12:08:13;;;;;;;7.00;2.40;;;6.10;99.90;;;;;;5019622;28;20053;-79
2021/12/08 12:10:41;;;;;;;9.30;3.17;;;6.10;99.90;;;;;;5034948;28;20094;-79
2021/12/08 12:13:08;;;;;;;5.32;2.03;;;6.10;99.90;;;;;;5035853;28;20055;-79
2021/12/08 12:15:36;;;;;;;8.00;2.83;;;6.10;99.90;;;;;;5036052;28;20052;-79
2021/12/08 12:18:02;;;;;;;4.57;2.00;;;6.20;99.90;;;;;;5035468;28;20048;-79
2021/12/08 12:20:38;;;;;;;7.15;1.92;;;6.20;99.90;;;;;;5035068;28;20052;-79
2021/12/08 12:23:25;;;;;;;8.93;1.90;;;6.20;99.90;;;;;;5036373;28;20044;-80
2021/12/08 12:26:19;;;;;;;6.15;2.35;;;6.20;99.90;;;;;;5035438;28;20052;-80
2021/12/08 12:29:03;;;;;;;10.85;2.38;;;6.20;99.90;;;;;;5035425;28;20063;-79
2021/12/08 12:32:03;;;;;;;2.67;1.73;;;6.20;99.90;;;;;;5039758;28;20407;-80
2021/12/08 12:34:38;;;;;;;6.15;1.52;;;6.20;99.90;;;;;;5022643;28;20063;-79
2021/12/08 12:37:34;;;;;;;7.78;2.05;;;6.20;99.90;;;;;;5039485;28;20545;-79
2021/12/08 12:40:06;;;;;;;8.30;1.52;;;6.20;99.90;;;;;;5012132;28;20492;-70
2021/12/08 12:42:56;;;;;;;6.43;2.03;;;6.20;99.90;;;;;;5039602;28;20037;-79
2021/12/08 12:45:24;;;;;;;10.73;2.83;;;6.10;99.90;;;;;;5039288;28;20500;-79
2021/12/08 12:48:14;;;;;;;4.30;1.80;;;6.10;99.90;;;;;;5021746;28;20083;-80
2021/12/08 12:51:04;;;;;;;5.10;1.85;;;6.20;99.90;;;;;;5038478;28;20088;-80
2021/12/08 12:53:41;;;;;;;5.45;1.40;;;6.30;99.90;;;;;;5038851;28;20045;-80
2021/12/08 12:56:28;;;;;;;4.38;1.52;;;6.30;99.90;;;;;;5056988;28;20141;-79
2021/12/08 12:58:55;;;;;;;5.70;1.55;;;6.40;99.90;;;;;;5022008;28;20527;-80
2021/12/08 13:01:31;;;;;;;7.63;1.67;;;6.40;99.90;;;;;;5038689;28;20449;-79
2021/12/08 13:04:15;;;;;;;5.82;1.90;;;6.40;99.90;;;;;;5038805;28;20041;-79
2021/12/08 13:06:58;;;;;;;10.52;1.98;;;6.40;99.90;;;;;;5038081;28;20044;-79
2021/12/08 13:09:35;;;;;;;6.72;1.88;;;6.40;99.90;;;;;;5038005;28;20041;-79
2021/12/08 13:12:27;;;;;;;4.70;1.75;;;6.30;99.90;;;;;;5038129;28;20118;-80
2021/12/08 13:15:20;;;;;;;6.40;1.75;;;6.30;99.90;;;;;;5038070;28;20048;-79
2021/12/08 13:18:07;;;;;;;7.35;1.60;;;6.30;99.90;;;;;;5037994;28;20158;-80
2021/12/08 13:20:40;;;;;;;5.38;1.98;;;6.30;99.90;;;;;;5038201;28;20037;-79
2021/12/08 13:23:11;;;;;;;6.13;2.25;;;6.30;99.90;;;;;;5037769;28;20037;-80
2021/12/08 13:25:53;;;;;;;5.82;1.50;;;6.30;99.90;;;;;;5037645;28;20437;-79
2021/12/08 13:28:37;;;;;;;4.43;1.70;;;6.30;99.90;;;;;;5038144;28;20084;-79
2021/12/08 13:32:10;;;;;;;6.03;1.63;;;6.30;99.90;;;;;;5038166;28;20291;-79
2021/12/08 13:34:05;;;;;;;11.02;2.20;;;6.30;99.90;;;;;;5023151;28;20055;-79
2021/12/08 13:36:44;;;;;;;3.45;1.58;;;6.30;99.90;;;;;;5055254;28;20052;-80
2021/12/08 13:39:25;;;;;;;5.10;1.50;;;6.30;99.90;;;;;;5058130;28;20048;-79
2021/12/08 13:41:53;;;;;;;5.60;1.45;;;6.30;99.90;;;;;;5043388;28;20216;-80
2021/12/08 13:44:36;;;;;;;5.65;1.42;;;6.30;99.90;;;;;;5038589;28;20044;-79
2021/12/08 13:47:03;;;;;;;;;;;6.30;99.90;;;;;;5038793;28;20521;-80
2021/12/08 13:49:34;;;;;;;6.68;1.65;;;6.30;99.90;;;;;;5021666;28;20327;-77
2021/12/08 13:52:08;;;;;;;2.00;1.17;;;6.30;99.90;;;;;;5036527;28;20503;-76
2021/12/08 13:55:05;;;;;;;5.60;1.80;;;6.30;99.90;;;;;;5019557;28;20102;-75
2021/12/08 13:57:51;;;;;;;4.80;2.60;;;6.30;99.90;;;;;;5023205;28;20068;-76
2021/12/08 14:00:17;;;;;;;5.15;1.75;;;6.20;99.90;;;;;;5035899;28;20251;-76
2021/12/08 14:03:07;;;;;;;4.88;1.40;;;6.20;99.90;;;;;;5053810;28;20106;-76
2021/12/08 14:05:44;;;;;;;4.65;1.77;;;6.20;99.90;;;;;;5035994;28;20124;-76
2021/12/08 14:08:33;;;;;;;7.90;1.48;;;6.30;99.90;;;;;;5035898;28;20048;-76
2021/12/08 14:11:18;;;;;;;5.20;1.50;;;6.30;99.90;;;;;;5035764;28;20062;-76